Flight Track Log - Related Links

Times and Time Zones

All times are in EDT time to prevent confusion due to time zone crossing. See the COM3098 flight status page for this flight to view local times or setup timezone preferences in your user account.

Time Position Orientation Groundspeed Altitude Reporting Facility
EDT Latitude Longitude Course Direction KTS MPH feet Rate Location/Type
Sat 06:54:34 AM 39.0500 -84.6833 311° West 160 184 1,600  Level Cincinnati TRACON
Sat 06:55:46 AM 39.0833 -84.7333 North 221 254 3,800 2,250 Climbing Cincinnati TRACON
Sat 06:57:46 AM 39.2219 -84.7094 16° North 253 291 8,800 2,333 Climbing Indianapolis Center
Sat 06:58:46 AM 39.2972 -84.6811 13° North 263 303 10,800 1,800 Climbing Indianapolis Center
Sat 06:59:46 AM 39.3892 -84.6531 14° North 303 349 12,400 1,950 Climbing Indianapolis Center
Sat 07:00:46 AM 39.4833 -84.6222 14° North 332 382 14,700 2,450 Climbing Indianapolis Center
Sat 07:01:46 AM 39.5817 -84.5914 20° North 350 403 17,300 2,350 Climbing Indianapolis Center
Sat 07:02:46 AM 39.6717 -84.5497 19° North 350 403 19,400 1,750 Climbing Indianapolis Center
Sat 07:03:46 AM 39.7617 -84.5103 18° North 339 390 20,800 800 Climbing Indianapolis Center
Sat 07:04:46 AM 39.8556 -84.4711 20° North 350 403 21,000 100 Climbing Indianapolis Center
Sat 07:05:46 AM 39.9394 -84.4317 15° North 355 409 21,000  Level Indianapolis Center
Sat 07:06:46 AM 40.0292 -84.4003 360° North 345 397 21,000  Level Indianapolis Center
Sat 07:07:46 AM 40.1272 -84.4014 360° North 337 388 21,000  Level Indianapolis Center
Sat 07:08:46 AM 40.2250 -84.4025 358° North 332 382 21,000  Level Indianapolis Center
Sat 07:09:46 AM 40.3208 -84.4064 359° North 342 394 21,000  Level Indianapolis Center
Sat 07:11:23 AM 40.4925 -84.4111 359° North 363 418 21,000  Level Cleveland Center
Sat 07:12:23 AM 40.5906 -84.4142 359° North 363 418 21,000  Level Cleveland Center
Sat 07:13:23 AM 40.6864 -84.4169 359° North 358 412 21,000  Level Cleveland Center
Sat 07:14:23 AM 40.7864 -84.4200 359° North 352 405 21,000  Level Cleveland Center
Sat 07:15:23 AM 40.8717 -84.4222 360° North 347 399 21,000 -50 Level Cleveland Center
Sat 07:16:23 AM 40.9697 -84.4225 North 347 399 20,900 -650 Descending Cleveland Center
Sat 07:17:23 AM 41.0700 -84.4172 357° North 334 384 19,700 -1,100 Descending Cleveland Center
Sat 07:18:23 AM 41.1700 -84.4233 359° North 338 389 18,700 -1,000 Descending Cleveland Center
Sat 07:19:23 AM 41.2658 -84.4261 359° North 343 395 17,700 -900 Descending Cleveland Center
Sat 07:20:23 AM 41.3553 -84.4286 359° North 348 400 16,900 -900 Descending Cleveland Center
Sat 07:21:23 AM 41.4575 -84.4319 359° North 353 406 15,900 -1,000 Descending Cleveland Center
Sat 07:22:23 AM 41.5594 -84.4353 North 359 413 14,900 -1,000 Descending Cleveland Center
Sat 07:23:23 AM 41.6558 -84.4214 53° Northeast 359 413 13,900 -950 Descending Cleveland Center
Sat 07:24:23 AM 41.7158 -84.3139 64° Northeast 329 379 13,000 -700 Descending Cleveland Center
Sat 07:25:23 AM 41.7592 -84.1967 58° Northeast 339 390 12,500 -563 Descending Cleveland Center
Sat 07:25:59 AM 41.7947 -84.1206 46° Northeast 353 406 12,100 -330 Descending Cleveland Center
Sat 07:27:12 AM 41.8731 -84.0133 30° Northeast 337 388 11,900 -582 Descending Cleveland Center
Sat 07:28:13 AM 41.9458 -83.9558 36° Northeast 302 348 10,800 -885 Descending Cleveland Center
Sat 07:29:14 AM 42.0081 -83.8947 105° East 255 293 10,100 -1,033 Descending Cleveland Center
Sat 07:30:15 AM 41.9917 -83.8100 112° Southeast 229 264 8,700 -1,328 Descending Cleveland Center
Sat 07:31:16 AM 41.9708 -83.7392 131° Southeast 201 231 7,400 -887 Descending Cleveland Center
Sat 07:32:10 AM 41.9367 -83.6872 107° East 194 223 7,000 -574 Descending Cleveland Center
Sat 07:33:11 AM 41.9217 -83.6222 49° Northeast 191 220 6,300 -797 Descending Cleveland Center
Sat 07:34:18 AM 41.9586 -83.5656 29° Northeast 188 216 5,300 -639 Descending Cleveland Center
Sat 07:35:13 AM 41.9969 -83.5364 29° Northeast 185 213 5,000 -517 Descending Cleveland Center
Sat 07:36:14 AM 42.0458 -83.4997 27° Northeast 188 216 4,300 -879 Descending Cleveland Center
Sat 07:37:09 AM 42.0883 -83.4708 29° Northeast 189 217 3,300 -1,043 Descending Cleveland Center
Sat 07:38:09 AM 42.1308 -83.4392 28° Northeast 162 186 2,300 -798 Descending Cleveland Center
Sat 07:40:17 AM 42.2008 -83.3889 28° Northeast 134 154 800 -703 Descending Cleveland Center

Login

Don't have an account? Register now (free) for customized features, flight alerts, and more!